createdAt,value
2019-02-14T00:00:05.042Z,66.97
2019-02-14T00:00:41.451Z,66.98
2019-02-14T00:01:15.954Z,66.94
2019-02-14T00:01:50.324Z,66.92
2019-02-14T00:02:25.229Z,67.01
2019-02-14T00:02:59.916Z,67.03
2019-02-14T00:03:34.262Z,66.96
2019-02-14T00:04:09.174Z,66.96
2019-02-14T00:04:43.547Z,66.93
2019-02-14T00:05:17.895Z,66.98
2019-02-14T00:05:52.256Z,66.98
2019-02-14T00:06:26.842Z,67.06
2019-02-14T00:07:01.200Z,67.07
2019-02-14T00:07:35.805Z,67.09
2019-02-14T00:08:10.475Z,67.17
2019-02-14T00:08:44.881Z,67.22
2019-02-14T00:09:19.232Z,67.37
2019-02-14T00:09:53.561Z,67.40
2019-02-14T00:10:28.155Z,67.45
2019-02-14T00:11:02.820Z,67.09
2019-02-14T00:11:37.154Z,67.05
2019-02-14T00:12:11.626Z,67.06
2019-02-14T00:12:46.330Z,67.04
2019-02-14T00:13:20.987Z,67.06
2019-02-14T00:13:55.333Z,67.06
2019-02-14T00:14:29.681Z,67.08
2019-02-14T00:15:04.282Z,67.07
2019-02-14T00:15:38.871Z,67.16
2019-02-14T00:16:13.582Z,67.22
2019-02-14T00:16:47.941Z,67.13
2019-02-14T00:17:22.294Z,67.20
2019-02-14T00:17:56.651Z,67.26
2019-02-14T00:18:31.001Z,67.25
2019-02-14T00:19:05.635Z,67.29
2019-02-14T00:19:40.227Z,67.26
2019-02-14T00:20:14.839Z,67.07
2019-02-14T00:20:49.174Z,67.11
2019-02-14T00:21:23.799Z,67.18
2019-02-14T00:21:58.149Z,67.25
2019-02-14T00:22:32.514Z,67.31
2019-02-14T00:23:06.890Z,67.28
2019-02-14T00:23:41.252Z,67.25
2019-02-14T00:24:15.748Z,67.01
2019-02-14T00:24:50.410Z,66.97
2019-02-14T00:25:24.751Z,67.06
2019-02-14T00:25:59.126Z,67.09
2019-02-14T00:26:33.749Z,67.06
2019-02-14T00:27:08.373Z,67.10
2019-02-14T00:27:42.742Z,67.22
2019-02-14T00:28:17.164Z,67.34
2019-02-14T00:28:51.528Z,67.37
2019-02-14T00:29:25.891Z,67.41
2019-02-14T00:30:00.325Z,67.54
2019-02-14T00:30:34.923Z,67.57
2019-02-14T00:31:09.556Z,67.59
2019-02-14T00:31:44.281Z,67.62
2019-02-14T00:32:18.889Z,67.72
2019-02-14T00:32:53.244Z,67.73
2019-02-14T00:33:27.694Z,67.73
2019-02-14T00:34:02.171Z,67.75
2019-02-14T00:34:36.781Z,67.75
2019-02-14T00:35:11.163Z,67.85
2019-02-14T00:35:45.534Z,67.93
2019-02-14T00:36:20.129Z,67.98
2019-02-14T00:36:54.578Z,67.96
2019-02-14T00:37:28.929Z,68.00
2019-02-14T00:38:03.273Z,68.06
2019-02-14T00:38:37.943Z,68.04
2019-02-14T00:39:12.305Z,68.07
2019-02-14T00:39:46.654Z,67.97
2019-02-14T00:40:21.362Z,67.93
2019-02-14T00:40:55.955Z,67.92
2019-02-14T00:41:31.146Z,68.00
2019-02-14T00:42:05.763Z,67.99
2019-02-14T00:42:40.384Z,67.91
2019-02-14T00:43:14.799Z,67.86
2019-02-14T00:43:49.159Z,67.90
2019-02-14T00:44:23.506Z,68.00
2019-02-14T00:44:57.872Z,67.92
2019-02-14T00:45:32.491Z,67.83
2019-02-14T00:46:06.844Z,67.80
2019-02-14T00:46:41.460Z,67.81
2019-02-14T00:47:15.838Z,67.82
2019-02-14T00:47:50.446Z,67.78
2019-02-14T00:48:25.087Z,67.73
2019-02-14T00:48:59.437Z,67.69
2019-02-14T00:49:33.783Z,67.75
2019-02-14T00:50:08.224Z,67.77
2019-02-14T00:50:42.833Z,67.83
2019-02-14T00:51:17.214Z,67.94
2019-02-14T00:51:51.567Z,67.98
2019-02-14T00:52:25.917Z,68.06
2019-02-14T00:53:00.824Z,68.18
2019-02-14T00:53:35.183Z,68.28
2019-02-14T00:54:09.532Z,68.32
2019-02-14T00:54:43.884Z,68.25
2019-02-14T00:55:18.265Z,68.28
2019-02-14T00:55:52.622Z,68.34
2019-02-14T00:56:26.988Z,68.31
2019-02-14T00:57:01.331Z,68.32
2019-02-14T00:57:35.760Z,68.30
2019-02-14T00:58:10.110Z,68.21
2019-02-14T00:58:44.742Z,68.17
2019-02-14T00:59:19.357Z,68.29
2019-02-14T00:59:53.959Z,68.38
2019-02-14T01:00:28.578Z,68.30
2019-02-14T01:01:02.920Z,68.31
2019-02-14T01:01:37.258Z,68.37
2019-02-14T01:02:11.609Z,68.37
2019-02-14T01:02:45.980Z,68.37
2019-02-14T01:03:20.341Z,68.43
2019-02-14T01:03:54.978Z,68.42
2019-02-14T01:04:29.571Z,68.34
2019-02-14T01:05:03.952Z,68.35
2019-02-14T01:05:38.330Z,68.44
2019-02-14T01:06:12.947Z,68.45
2019-02-14T01:06:47.290Z,68.51
2019-02-14T01:07:21.639Z,68.61
2019-02-14T01:07:56.253Z,68.62
2019-02-14T01:08:30.598Z,68.59
2019-02-14T01:09:05.990Z,68.62
2019-02-14T01:09:40.328Z,68.64
2019-02-14T01:10:14.943Z,68.78
2019-02-14T01:10:49.422Z,68.74
2019-02-14T01:11:23.771Z,68.45
2019-02-14T01:11:58.105Z,68.51
2019-02-14T01:12:32.454Z,68.61
2019-02-14T01:13:06.832Z,68.75
2019-02-14T01:13:41.435Z,68.70
2019-02-14T01:14:16.086Z,68.58
2019-02-14T01:14:50.525Z,68.65
2019-02-14T01:15:25.605Z,68.70
2019-02-14T01:16:00.016Z,68.73
2019-02-14T01:16:34.341Z,68.83
2019-02-14T01:17:08.683Z,68.88
2019-02-14T01:17:43.075Z,68.88
2019-02-14T01:18:17.775Z,68.95
2019-02-14T01:18:52.488Z,69.01
2019-02-14T01:19:26.864Z,69.15
2019-02-14T01:20:01.494Z,69.09
2019-02-14T01:20:36.182Z,68.98
2019-02-14T01:21:10.537Z,68.98
2019-02-14T01:21:44.907Z,68.83
2019-02-14T01:22:19.320Z,68.81
2019-02-14T01:22:53.686Z,68.85
2019-02-14T01:23:28.197Z,68.70
2019-02-14T01:24:02.570Z,68.71
2019-02-14T01:24:37.446Z,68.71
2019-02-14T01:25:11.840Z,68.67
2019-02-14T01:25:46.516Z,68.66
2019-02-14T01:26:20.906Z,68.74
2019-02-14T01:26:55.271Z,68.84
2019-02-14T01:27:29.654Z,68.80
2019-02-14T01:28:04.014Z,68.89
2019-02-14T01:28:38.364Z,69.00
2019-02-14T01:29:13.258Z,68.95
2019-02-14T01:29:47.928Z,68.84
2019-02-14T01:30:22.610Z,68.78
2019-02-14T01:30:57.299Z,68.88
2019-02-14T01:31:31.650Z,68.98
2019-02-14T01:32:06.260Z,69.03
2019-02-14T01:32:40.619Z,69.10
2019-02-14T01:33:14.997Z,69.19
2019-02-14T01:33:49.367Z,69.26
2019-02-14T01:34:24.318Z,69.24
2019-02-14T01:34:58.656Z,69.08
2019-02-14T01:35:32.999Z,69.05
2019-02-14T01:36:07.623Z,69.08
2019-02-14T01:36:42.266Z,69.07
2019-02-14T01:37:16.710Z,69.07
2019-02-14T01:37:51.309Z,69.07
2019-02-14T01:38:25.689Z,69.14
2019-02-14T01:39:00.024Z,69.21
2019-02-14T01:39:34.374Z,69.38
2019-02-14T01:40:08.873Z,69.49
2019-02-14T01:40:43.238Z,69.52
2019-02-14T01:41:17.724Z,69.66
2019-02-14T01:41:52.053Z,69.59
2019-02-14T01:42:26.505Z,69.52
2019-02-14T01:43:00.845Z,69.55
2019-02-14T01:43:35.450Z,69.61
2019-02-14T01:44:09.897Z,69.48
2019-02-14T01:44:44.552Z,69.45
2019-02-14T01:45:18.933Z,69.47
2019-02-14T01:45:53.420Z,69.54
2019-02-14T01:46:27.775Z,69.64
2019-02-14T01:47:02.124Z,69.70
2019-02-14T01:47:36.478Z,69.81
2019-02-14T01:48:11.456Z,69.87
2019-02-14T01:48:46.209Z,69.88
2019-02-14T01:49:20.578Z,69.73
2019-02-14T01:49:54.925Z,69.68
2019-02-14T01:50:31.784Z,69.67
2019-02-14T01:51:06.211Z,69.70
2019-02-14T01:51:40.822Z,69.69
2019-02-14T01:52:15.491Z,69.66
2019-02-14T01:52:49.830Z,69.74
2019-02-14T01:53:24.422Z,69.79
2019-02-14T01:53:58.772Z,69.82
2019-02-14T01:54:33.108Z,69.99
2019-02-14T01:55:07.742Z,70.07
2019-02-14T01:55:42.126Z,70.23
2019-02-14T01:56:16.481Z,70.20
2019-02-14T01:56:51.098Z,70.34
2019-02-14T01:57:25.688Z,70.47
2019-02-14T01:58:00.035Z,70.55
2019-02-14T01:58:34.714Z,70.58
2019-02-14T01:59:09.072Z,70.59
2019-02-14T01:59:43.472Z,70.62
2019-02-14T02:00:18.376Z,70.58
2019-02-14T02:00:52.997Z,70.69
2019-02-14T02:01:27.352Z,70.87
2019-02-14T02:02:01.678Z,70.98
2019-02-14T02:02:36.262Z,71.00
2019-02-14T02:03:10.859Z,71.02
2019-02-14T02:03:45.452Z,71.16
2019-02-14T02:04:19.810Z,71.27
2019-02-14T02:04:54.391Z,71.35
2019-02-14T02:05:28.727Z,71.37
2019-02-14T02:06:03.153Z,71.46
2019-02-14T02:06:37.480Z,71.51
2019-02-14T02:07:11.924Z,71.71
2019-02-14T02:07:46.591Z,71.82
2019-02-14T02:08:21.333Z,71.87
2019-02-14T02:08:56.034Z,71.89
2019-02-14T02:09:30.637Z,71.86
2019-02-14T02:10:05.384Z,71.71
2019-02-14T02:10:40.006Z,71.65
2019-02-14T02:11:14.360Z,71.65
2019-02-14T02:11:48.936Z,71.61
2019-02-14T02:12:23.537Z,71.64
2019-02-14T02:12:57.861Z,71.68
2019-02-14T02:13:32.813Z,71.68
2019-02-14T02:14:07.134Z,71.46
2019-02-14T02:14:42.001Z,71.44
2019-02-14T02:15:16.343Z,71.49
2019-02-14T02:15:50.661Z,71.50
2019-02-14T02:16:25.127Z,71.43
2019-02-14T02:16:59.745Z,71.44
2019-02-14T02:17:34.068Z,71.44
2019-02-14T02:18:08.640Z,71.40
2019-02-14T02:18:43.564Z,71.37
2019-02-14T02:19:18.235Z,71.38
2019-02-14T02:19:52.569Z,71.30
2019-02-14T02:20:33.275Z,71.33
2019-02-14T02:21:03.404Z,71.45
2019-02-14T02:21:37.738Z,71.45
2019-02-14T02:22:12.345Z,71.49
2019-02-14T02:22:46.647Z,71.08
2019-02-14T02:23:20.957Z,71.08
2019-02-14T02:23:55.532Z,71.11
2019-02-14T02:24:30.123Z,71.27
2019-02-14T02:25:04.826Z,71.00
2019-02-14T02:25:39.153Z,70.86
2019-02-14T02:26:13.744Z,71.01
2019-02-14T02:26:48.369Z,71.13
2019-02-14T02:27:22.950Z,71.16
2019-02-14T02:27:57.542Z,71.16
2019-02-14T02:28:31.965Z,71.04
2019-02-14T02:29:06.556Z,70.99
2019-02-14T02:29:40.921Z,70.82
2019-02-14T02:30:15.535Z,70.44
2019-02-14T02:30:49.867Z,70.49
2019-02-14T02:31:24.186Z,70.63
2019-02-14T02:31:58.834Z,70.82
2019-02-14T02:32:33.157Z,70.81
2019-02-14T02:33:07.466Z,70.90
2019-02-14T02:33:42.157Z,70.59
2019-02-14T02:34:16.836Z,70.45
2019-02-14T02:34:51.197Z,70.63
2019-02-14T02:35:25.772Z,70.80
2019-02-14T02:36:00.907Z,70.88
2019-02-14T02:36:35.188Z,70.85
2019-02-14T02:37:09.640Z,70.90
2019-02-14T02:37:44.093Z,70.91
2019-02-14T02:38:18.424Z,70.92
2019-02-14T02:38:52.757Z,70.95
2019-02-14T02:39:27.143Z,70.93
2019-02-14T02:40:01.752Z,70.85
2019-02-14T02:40:36.067Z,70.78
2019-02-14T02:41:10.978Z,70.71
2019-02-14T02:41:45.336Z,70.63
2019-02-14T02:42:19.646Z,70.34
2019-02-14T02:42:53.978Z,70.28
2019-02-14T02:43:28.611Z,70.38
2019-02-14T02:44:03.187Z,70.43
2019-02-14T02:44:37.540Z,70.43
2019-02-14T02:45:12.661Z,70.40
2019-02-14T02:45:47.299Z,70.38
2019-02-14T02:46:22.440Z,70.41
2019-02-14T02:46:56.772Z,70.45
2019-02-14T02:47:31.260Z,70.55
2019-02-14T02:48:05.581Z,70.64
2019-02-14T02:48:40.141Z,70.70
2019-02-14T02:49:14.784Z,70.77
2019-02-14T02:49:49.399Z,70.82
2019-02-14T02:50:24.097Z,70.82
2019-02-14T02:50:58.715Z,70.63
2019-02-14T02:51:33.171Z,70.49
2019-02-14T02:52:07.594Z,70.45
2019-02-14T02:52:41.945Z,70.45
2019-02-14T02:53:16.537Z,70.49
2019-02-14T02:53:50.869Z,70.50
2019-02-14T02:54:25.214Z,70.49
2019-02-14T02:54:59.824Z,70.47
2019-02-14T02:55:34.192Z,70.44
2019-02-14T02:56:08.522Z,70.40
2019-02-14T02:56:43.117Z,70.34
2019-02-14T02:57:17.741Z,70.35
2019-02-14T02:57:52.092Z,70.35
2019-02-14T02:58:26.457Z,70.40
2019-02-14T02:59:01.016Z,70.44
2019-02-14T02:59:35.356Z,70.43
2019-02-14T03:00:13.137Z,70.41
2019-02-14T03:00:47.479Z,70.46
2019-02-14T03:01:21.776Z,70.47
2019-02-14T03:01:56.102Z,70.46
2019-02-14T03:02:30.456Z,70.54
2019-02-14T03:03:04.790Z,70.62
2019-02-14T03:03:39.388Z,70.67
2019-02-14T03:04:14.009Z,70.55
2019-02-14T03:04:48.340Z,70.43
2019-02-14T03:05:22.682Z,70.27
2019-02-14T03:05:57.073Z,70.10
2019-02-14T03:06:31.400Z,70.08
2019-02-14T03:07:05.840Z,70.17
2019-02-14T03:07:40.727Z,70.17
2019-02-14T03:08:15.314Z,70.15
2019-02-14T03:08:49.640Z,70.20
2019-02-14T03:09:24.056Z,70.17
2019-02-14T03:09:58.414Z,70.23
2019-02-14T03:10:32.723Z,70.16
2019-02-14T03:11:07.340Z,70.10
2019-02-14T03:11:41.648Z,69.98
2019-02-14T03:12:16.226Z,69.87
2019-02-14T03:12:50.548Z,69.79
2019-02-14T03:13:24.882Z,69.70
2019-02-14T03:13:59.201Z,69.59
2019-02-14T03:14:33.826Z,69.58
2019-02-14T03:15:09.083Z,69.56
2019-02-14T03:15:43.511Z,69.56
2019-02-14T03:16:17.884Z,69.50
2019-02-14T03:16:52.207Z,69.47
2019-02-14T03:17:26.781Z,69.51
2019-02-14T03:18:01.097Z,69.56
2019-02-14T03:18:35.405Z,69.49
2019-02-14T03:19:09.710Z,69.48
2019-02-14T03:19:44.053Z,69.38
2019-02-14T03:20:18.952Z,69.05
2019-02-14T03:20:53.530Z,69.24
2019-02-14T03:21:27.848Z,69.37
2019-02-14T03:22:02.155Z,69.36
2019-02-14T03:22:36.456Z,69.41
2019-02-14T03:23:11.037Z,69.44
2019-02-14T03:23:45.366Z,69.64
2019-02-14T03:24:19.956Z,69.70
2019-02-14T03:24:54.288Z,69.74
2019-02-14T03:25:28.914Z,69.83
2019-02-14T03:26:03.483Z,69.91
2019-02-14T03:26:38.096Z,69.95
2019-02-14T03:27:12.709Z,70.04
2019-02-14T03:27:47.050Z,70.11
2019-02-14T03:28:21.645Z,70.15
2019-02-14T03:28:55.969Z,70.15
2019-02-14T03:29:30.239Z,69.99
2019-02-14T03:30:05.006Z,69.95
2019-02-14T03:30:39.327Z,70.11
2019-02-14T03:31:13.664Z,70.15
2019-02-14T03:31:47.998Z,70.25
2019-02-14T03:32:22.322Z,70.31
2019-02-14T03:32:56.650Z,70.08
2019-02-14T03:33:31.238Z,70.18
2019-02-14T03:34:05.859Z,70.34
2019-02-14T03:34:40.204Z,70.45
2019-02-14T03:35:14.570Z,70.50
2019-02-14T03:35:49.225Z,70.52
2019-02-14T03:36:23.831Z,70.52
2019-02-14T03:36:58.446Z,70.60
2019-02-14T03:37:33.407Z,70.64
2019-02-14T03:38:08.350Z,70.66
2019-02-14T03:38:42.786Z,70.72
2019-02-14T03:39:17.400Z,70.77
2019-02-14T03:39:51.737Z,70.78
2019-02-14T03:40:26.608Z,70.72
2019-02-14T03:41:01.095Z,70.76
2019-02-14T03:41:35.544Z,70.80
2019-02-14T03:42:10.154Z,70.84
2019-02-14T03:42:44.485Z,70.76
2019-02-14T03:43:18.843Z,70.76
2019-02-14T03:43:53.418Z,70.69
2019-02-14T03:44:27.744Z,70.60
2019-02-14T03:45:02.087Z,70.52
2019-02-14T03:45:36.698Z,70.51
2019-02-14T03:46:11.041Z,70.53
2019-02-14T03:46:45.646Z,70.58
2019-02-14T03:47:20.007Z,70.61
2019-02-14T03:47:54.444Z,70.63
2019-02-14T03:48:28.775Z,70.55
2019-02-14T03:49:03.113Z,70.39
2019-02-14T03:49:37.439Z,70.28
2019-02-14T03:50:11.785Z,70.31
2019-02-14T03:50:46.436Z,70.30
2019-02-14T03:51:20.775Z,70.27
2019-02-14T03:51:55.113Z,70.17
2019-02-14T03:52:29.451Z,70.11
2019-02-14T03:53:03.773Z,70.18
2019-02-14T03:53:38.420Z,70.33
2019-02-14T03:54:12.984Z,70.42
2019-02-14T03:54:47.564Z,70.51
2019-02-14T03:55:22.497Z,70.58
2019-02-14T03:55:56.836Z,70.61
2019-02-14T03:56:31.503Z,70.64
2019-02-14T03:57:06.424Z,70.58
2019-02-14T03:57:40.774Z,70.55
2019-02-14T03:58:15.235Z,70.53
2019-02-14T03:58:49.671Z,70.43
2019-02-14T03:59:23.995Z,70.44
2019-02-14T03:59:58.337Z,70.45
2019-02-14T04:00:33.013Z,70.45
2019-02-14T04:01:07.353Z,70.48
2019-02-14T04:01:41.729Z,70.47
2019-02-14T04:02:16.451Z,70.39
2019-02-14T04:02:51.035Z,70.43
2019-02-14T04:03:25.367Z,70.45
2019-02-14T04:03:59.693Z,70.46
2019-02-14T04:04:34.283Z,70.49
2019-02-14T04:05:08.788Z,70.39
2019-02-14T04:05:46.191Z,70.30
2019-02-14T04:06:27.137Z,70.35
2019-02-14T04:06:56.813Z,70.45
2019-02-14T04:07:31.166Z,70.45
2019-02-14T04:08:05.485Z,70.47
2019-02-14T04:08:40.073Z,70.57
2019-02-14T04:09:14.683Z,70.68
2019-02-14T04:09:49.042Z,70.76
2019-02-14T04:10:23.637Z,70.82
2019-02-14T04:10:57.992Z,70.83
2019-02-14T04:11:32.331Z,70.86
2019-02-14T04:12:06.657Z,70.84
2019-02-14T04:12:41.125Z,70.83
2019-02-14T04:13:15.762Z,70.79
2019-02-14T04:13:50.366Z,70.87
2019-02-14T04:14:24.978Z,70.84
2019-02-14T04:14:59.561Z,70.80
2019-02-14T04:15:33.877Z,70.80
2019-02-14T04:16:08.498Z,70.82
2019-02-14T04:16:43.405Z,70.88
2019-02-14T04:17:17.739Z,70.90
2019-02-14T04:17:52.305Z,70.96
2019-02-14T04:18:26.682Z,71.08
2019-02-14T04:19:01.058Z,70.98
2019-02-14T04:19:35.673Z,70.95
2019-02-14T04:20:10.100Z,70.86
2019-02-14T04:20:44.432Z,70.79
2019-02-14T04:21:19.019Z,70.77
2019-02-14T04:21:53.344Z,70.73
2019-02-14T04:22:27.673Z,70.75
2019-02-14T04:23:01.997Z,70.65
2019-02-14T04:23:36.348Z,70.66
2019-02-14T04:24:10.929Z,70.66
2019-02-14T04:24:45.996Z,70.69
2019-02-14T04:25:20.644Z,70.74
2019-02-14T04:25:55.243Z,70.74
2019-02-14T04:26:29.563Z,70.82
2019-02-14T04:27:03.950Z,70.87
2019-02-14T04:27:38.578Z,70.87
2019-02-14T04:28:12.908Z,71.01
2019-02-14T04:28:47.249Z,71.04
2019-02-14T04:29:21.828Z,70.90
2019-02-14T04:29:56.428Z,70.90
2019-02-14T04:30:30.743Z,70.93
2019-02-14T04:31:05.104Z,71.00
2019-02-14T04:31:39.431Z,71.08
2019-02-14T04:32:14.023Z,71.12
2019-02-14T04:32:48.620Z,71.18
2019-02-14T04:33:22.949Z,71.26
2019-02-14T04:33:57.275Z,71.27
2019-02-14T04:34:31.893Z,71.29
2019-02-14T04:35:06.360Z,71.29
2019-02-14T04:35:40.756Z,71.29
2019-02-14T04:36:15.162Z,71.31
2019-02-14T04:36:49.466Z,71.31
2019-02-14T04:37:24.071Z,71.32
2019-02-14T04:37:58.405Z,71.42
2019-02-14T04:38:32.736Z,71.55
2019-02-14T04:39:08.166Z,71.46
2019-02-14T04:39:42.762Z,71.36
2019-02-14T04:40:17.350Z,71.33
2019-02-14T04:40:51.971Z,71.30
2019-02-14T04:41:26.887Z,71.24
2019-02-14T04:42:01.462Z,71.21
2019-02-14T04:42:35.820Z,71.26
2019-02-14T04:43:10.150Z,71.29
2019-02-14T04:43:44.778Z,71.27
2019-02-14T04:44:19.778Z,71.34
2019-02-14T04:44:54.371Z,71.24
2019-02-14T04:45:28.702Z,71.18
2019-02-14T04:46:03.328Z,71.14
2019-02-14T04:46:37.740Z,71.11
2019-02-14T04:47:12.317Z,71.08
2019-02-14T04:47:46.647Z,71.01
2019-02-14T04:48:21.254Z,71.00
2019-02-14T04:48:55.835Z,70.93
2019-02-14T04:49:30.419Z,70.94
2019-02-14T04:50:05.391Z,70.88
2019-02-14T04:50:39.740Z,70.94
2019-02-14T04:51:14.100Z,70.99
2019-02-14T04:51:48.432Z,71.04
2019-02-14T04:52:22.762Z,71.06
2019-02-14T04:52:57.342Z,71.02
2019-02-14T04:53:31.931Z,71.08
2019-02-14T04:54:06.510Z,70.99
2019-02-14T04:54:41.172Z,70.97
2019-02-14T04:55:15.520Z,70.95
2019-02-14T04:55:49.853Z,70.81
2019-02-14T04:56:24.529Z,70.75
2019-02-14T04:56:58.864Z,70.79
2019-02-14T04:57:33.729Z,70.58
2019-02-14T04:58:08.143Z,70.49
2019-02-14T04:58:42.780Z,70.50
2019-02-14T04:59:17.940Z,70.48
2019-02-14T04:59:52.270Z,70.42
2019-02-14T05:00:26.599Z,70.40
2019-02-14T05:01:00.931Z,70.43
2019-02-14T05:01:35.311Z,70.48
2019-02-14T05:02:09.901Z,70.48
2019-02-14T05:02:44.526Z,70.53
2019-02-14T05:03:19.172Z,70.48
2019-02-14T05:03:53.591Z,70.45
2019-02-14T05:04:27.919Z,70.46
2019-02-14T05:05:02.261Z,70.44
2019-02-14T05:05:36.594Z,70.45
2019-02-14T05:06:10.952Z,70.51
2019-02-14T05:06:45.332Z,70.61
2019-02-14T05:07:19.681Z,70.75
2019-02-14T05:07:54.565Z,70.78
2019-02-14T05:08:29.209Z,70.87
2019-02-14T05:09:04.469Z,70.92
2019-02-14T05:09:39.113Z,70.93
2019-02-14T05:10:14.099Z,70.90
2019-02-14T05:10:48.453Z,70.79
2019-02-14T05:11:23.136Z,70.76
2019-02-14T05:11:57.778Z,70.77
2019-02-14T05:12:32.438Z,70.76
2019-02-14T05:13:06.769Z,70.78
2019-02-14T05:13:41.642Z,70.82
2019-02-14T05:14:15.996Z,70.88
2019-02-14T05:14:50.326Z,70.93
2019-02-14T05:15:24.658Z,70.94
2019-02-14T05:15:58.989Z,70.99
2019-02-14T05:16:33.367Z,71.05
2019-02-14T05:17:08.270Z,71.15
2019-02-14T05:17:42.925Z,71.19
2019-02-14T05:18:17.821Z,71.28
2019-02-14T05:18:52.157Z,71.34
2019-02-14T05:19:26.487Z,71.42
2019-02-14T05:20:01.347Z,71.41
2019-02-14T05:20:35.682Z,71.39
2019-02-14T05:21:10.304Z,71.26
2019-02-14T05:21:44.915Z,71.19
2019-02-14T05:22:19.805Z,71.20
2019-02-14T05:22:54.141Z,71.18
2019-02-14T05:23:28.774Z,71.17
2019-02-14T05:24:03.105Z,71.43
2019-02-14T05:24:37.443Z,71.67
2019-02-14T05:25:12.085Z,71.69
2019-02-14T05:25:46.759Z,71.64
2019-02-14T05:26:22.659Z,71.57
2019-02-14T05:26:57.282Z,71.50
2019-02-14T05:27:31.626Z,71.52
2019-02-14T05:28:05.964Z,71.54
2019-02-14T05:28:40.305Z,71.53
2019-02-14T05:29:14.634Z,71.40
2019-02-14T05:29:50.605Z,71.34
2019-02-14T05:30:25.199Z,71.42
2019-02-14T05:30:59.779Z,71.62
2019-02-14T05:31:34.109Z,71.75
2019-02-14T05:32:08.731Z,71.91
2019-02-14T05:32:43.082Z,71.99
2019-02-14T05:33:17.437Z,72.08
2019-02-14T05:33:51.767Z,72.17
2019-02-14T05:34:26.151Z,72.26
2019-02-14T05:35:00.545Z,72.37
2019-02-14T05:35:34.815Z,72.46
2019-02-14T05:36:09.401Z,72.50
2019-02-14T05:36:43.768Z,72.60
2019-02-14T05:37:18.147Z,72.68
2019-02-14T05:37:52.509Z,72.77
2019-02-14T05:38:26.841Z,72.68
2019-02-14T05:39:01.171Z,72.64
2019-02-14T05:39:35.587Z,72.67
2019-02-14T05:40:10.115Z,72.63
2019-02-14T05:40:44.814Z,72.56
2019-02-14T05:41:19.493Z,72.37
2019-02-14T05:41:54.430Z,72.32
2019-02-14T05:42:29.026Z,72.33
2019-02-14T05:43:03.371Z,72.33
2019-02-14T05:43:37.701Z,72.35
2019-02-14T05:44:12.313Z,72.31
2019-02-14T05:44:46.662Z,72.29
2019-02-14T05:45:20.985Z,72.24
2019-02-14T05:45:55.353Z,72.16
2019-02-14T05:46:29.693Z,72.19
2019-02-14T05:47:04.027Z,72.22
2019-02-14T05:47:38.649Z,72.15
2019-02-14T05:48:13.010Z,72.10
2019-02-14T05:48:47.631Z,72.18
2019-02-14T05:49:22.225Z,72.25
2019-02-14T05:49:56.808Z,72.33
2019-02-14T05:50:31.398Z,72.42
2019-02-14T05:51:05.719Z,72.37
2019-02-14T05:51:40.320Z,72.28
2019-02-14T05:52:14.700Z,72.39
2019-02-14T05:52:49.025Z,72.37
2019-02-14T05:53:23.611Z,72.32
2019-02-14T05:53:57.948Z,72.25
2019-02-14T05:54:32.282Z,72.11
2019-02-14T05:55:07.892Z,72.03
2019-02-14T05:55:42.418Z,71.98
2019-02-14T05:56:16.762Z,72.04
2019-02-14T05:56:51.095Z,72.09
2019-02-14T05:57:27.289Z,72.18
2019-02-14T05:58:01.768Z,72.23
2019-02-14T05:58:36.109Z,72.29
2019-02-14T05:59:10.470Z,72.44
2019-02-14T05:59:44.812Z,72.56
2019-02-14T06:00:19.752Z,72.72
2019-02-14T06:00:54.911Z,72.63
2019-02-14T06:01:29.251Z,72.72
2019-02-14T06:02:03.679Z,72.68
2019-02-14T06:02:38.217Z,72.80
2019-02-14T06:03:12.840Z,72.82
2019-02-14T06:03:47.246Z,72.80
2019-02-14T06:04:21.870Z,72.73
2019-02-14T06:04:56.450Z,72.79
2019-02-14T06:05:30.824Z,72.81
2019-02-14T06:06:05.192Z,72.75
2019-02-14T06:06:39.801Z,72.69
2019-02-14T06:07:14.179Z,72.63
2019-02-14T06:07:48.570Z,72.55
2019-02-14T06:08:23.204Z,72.59
2019-02-14T06:08:57.545Z,72.65
2019-02-14T06:09:31.880Z,72.77
2019-02-14T06:10:07.037Z,72.76
2019-02-14T06:10:41.621Z,72.71
2019-02-14T06:11:16.069Z,72.66
2019-02-14T06:11:50.703Z,72.79
2019-02-14T06:12:25.322Z,72.92
2019-02-14T06:12:59.946Z,72.95
2019-02-14T06:13:34.293Z,73.03
2019-02-14T06:14:08.909Z,73.07
2019-02-14T06:14:43.313Z,73.06
2019-02-14T06:15:17.943Z,73.08
2019-02-14T06:15:52.510Z,73.18
2019-02-14T06:16:27.165Z,73.35
2019-02-14T06:17:01.524Z,73.44
2019-02-14T06:17:36.196Z,73.38
2019-02-14T06:18:10.549Z,73.39
2019-02-14T06:18:45.224Z,73.29
2019-02-14T06:19:19.936Z,73.28
2019-02-14T06:19:54.277Z,73.26
2019-02-14T06:20:28.898Z,73.30
2019-02-14T06:21:03.239Z,73.29
2019-02-14T06:21:37.850Z,73.45
2019-02-14T06:22:12.467Z,73.44
2019-02-14T06:22:47.150Z,73.53
2019-02-14T06:23:21.490Z,73.71
2019-02-14T06:23:56.123Z,73.88
2019-02-14T06:24:30.738Z,73.84
2019-02-14T06:25:05.295Z,73.72
2019-02-14T06:25:39.871Z,73.80
2019-02-14T06:26:14.272Z,73.77
2019-02-14T06:26:48.971Z,73.72
2019-02-14T06:27:23.366Z,73.73
2019-02-14T06:27:57.714Z,73.73
2019-02-14T06:28:32.047Z,73.75
2019-02-14T06:29:06.379Z,73.74
2019-02-14T06:29:41.031Z,73.75
2019-02-14T06:30:15.616Z,73.63
2019-02-14T06:30:50.113Z,73.62
2019-02-14T06:31:24.756Z,73.65
2019-02-14T06:31:59.609Z,73.62
2019-02-14T06:32:33.965Z,73.51
2019-02-14T06:33:08.387Z,73.41
2019-02-14T06:33:44.343Z,73.42
2019-02-14T06:34:19.087Z,73.47
2019-02-14T06:34:53.421Z,73.44
2019-02-14T06:35:28.032Z,73.40
2019-02-14T06:36:02.462Z,73.42
2019-02-14T06:36:37.040Z,73.52
2019-02-14T06:37:11.374Z,73.60
2019-02-14T06:37:46.243Z,73.71
2019-02-14T06:38:20.976Z,73.73
2019-02-14T06:38:55.302Z,73.73
2019-02-14T06:39:29.702Z,73.79
2019-02-14T06:40:04.461Z,73.92
2019-02-14T06:40:39.080Z,73.90
2019-02-14T06:41:13.459Z,73.90
2019-02-14T06:41:47.817Z,73.77
2019-02-14T06:42:22.444Z,73.62
2019-02-14T06:42:56.843Z,73.51
2019-02-14T06:43:31.178Z,73.39
2019-02-14T06:44:05.787Z,73.34
2019-02-14T06:44:40.688Z,73.43
2019-02-14T06:45:15.363Z,73.45
2019-02-14T06:45:50.020Z,73.48
2019-02-14T06:46:24.392Z,73.54
2019-02-14T06:46:58.994Z,73.54
2019-02-14T06:47:33.335Z,73.49
2019-02-14T06:48:07.934Z,73.38
2019-02-14T06:48:42.391Z,73.31
2019-02-14T06:49:16.765Z,73.26
2019-02-14T06:49:51.157Z,73.23
2019-02-14T06:50:25.494Z,73.19
2019-02-14T06:50:59.832Z,73.09
2019-02-14T06:51:34.438Z,73.04
2019-02-14T06:52:08.788Z,73.20
2019-02-14T06:52:43.138Z,73.24
2019-02-14T06:53:17.574Z,73.20
2019-02-14T06:53:51.908Z,73.17
2019-02-14T06:54:26.225Z,73.21
2019-02-14T06:55:00.562Z,73.27
2019-02-14T06:55:34.911Z,73.41
2019-02-14T06:56:09.494Z,73.38
2019-02-14T06:56:44.014Z,73.46
2019-02-14T06:57:18.587Z,73.45
2019-02-14T06:57:53.464Z,73.33
2019-02-14T06:58:28.092Z,73.29
2019-02-14T06:59:02.457Z,73.32
2019-02-14T06:59:36.793Z,73.31
2019-02-14T07:00:13.343Z,73.34
2019-02-14T07:00:47.812Z,73.50
2019-02-14T07:01:22.405Z,73.49
2019-02-14T07:01:57.010Z,73.51
2019-02-14T07:02:31.647Z,73.49
2019-02-14T07:03:06.019Z,73.57
2019-02-14T07:03:40.391Z,73.62
2019-02-14T07:04:14.908Z,73.71
2019-02-14T07:04:49.546Z,73.71
2019-02-14T07:05:23.920Z,73.66
2019-02-14T07:05:58.642Z,73.49
2019-02-14T07:06:33.322Z,73.36
2019-02-14T07:07:07.955Z,73.27
2019-02-14T07:07:42.319Z,73.28
2019-02-14T07:08:16.852Z,73.26
2019-02-14T07:08:51.602Z,73.23
2019-02-14T07:09:25.966Z,73.20
2019-02-14T07:10:00.324Z,73.23
2019-02-14T07:10:34.919Z,73.26
2019-02-14T07:11:09.520Z,73.26
2019-02-14T07:11:43.931Z,73.35
2019-02-14T07:12:18.594Z,73.35
2019-02-14T07:12:53.050Z,73.43
2019-02-14T07:13:27.749Z,73.50
2019-02-14T07:14:02.539Z,73.38
2019-02-14T07:14:37.895Z,73.48
2019-02-14T07:15:12.467Z,73.59
2019-02-14T07:15:47.153Z,73.54
2019-02-14T07:16:21.847Z,73.53
2019-02-14T07:16:56.473Z,73.45
2019-02-14T07:17:31.118Z,73.32
2019-02-14T07:18:05.498Z,73.29
2019-02-14T07:18:39.842Z,73.33
2019-02-14T07:19:14.233Z,73.45
2019-02-14T07:19:48.932Z,73.54
2019-02-14T07:20:23.310Z,73.65
2019-02-14T07:20:57.807Z,73.69
2019-02-14T07:21:32.428Z,73.81
2019-02-14T07:22:06.768Z,73.80
2019-02-14T07:22:41.161Z,73.65
2019-02-14T07:23:15.834Z,73.60
2019-02-14T07:23:50.234Z,73.63
2019-02-14T07:24:24.587Z,73.67